Time;durP1;ratioP1;P1;durP2;ratioP2;P2;SDS_P1;SDS_P2;PMS_P1;PMS_P2;Temp;Humidity;BMP_temperature;BMP_pressure;BME280_temperature;BME280_humidity;BME280_pressure;Samples;Min_cycle;Max_cycle;Signal;HPM_P1;HPM_P2
2021/10/18 00:00:10;;;;;;;24.15;11.82;;;9.30;87.80;;;;;;5020211;27;20056;-72
2021/10/18 00:02:36;;;;;;;21.40;11.85;;;9.30;87.90;;;;;;5013168;28;20034;-72
2021/10/18 00:05:03;;;;;;;23.02;11.50;;;9.40;87.80;;;;;;5016963;28;20041;-73
2021/10/18 00:07:29;;;;;;;18.42;11.30;;;9.40;88.00;;;;;;5017518;28;20517;-72
2021/10/18 00:09:55;;;;;;;20.48;11.55;;;9.50;87.40;;;;;;5015145;28;20104;-73
2021/10/18 00:12:20;;;;;;;22.42;11.85;;;9.50;87.50;;;;;;5017087;28;20030;-74
2021/10/18 00:14:46;;;;;;;19.15;11.32;;;9.60;87.30;;;;;;5009036;28;20097;-76
2021/10/18 00:17:11;;;;;;;16.65;11.65;;;9.60;87.20;;;;;;5014065;27;20029;-72
2021/10/18 00:19:38;;;;;;;20.77;11.63;;;9.60;87.30;;;;;;5006616;28;20115;-73
2021/10/18 00:22:03;;;;;;;18.17;11.18;;;9.70;86.90;;;;;;5020944;28;20029;-73
2021/10/18 00:24:29;;;;;;;14.90;10.00;;;9.70;86.60;;;;;;5010598;28;20535;-73
2021/10/18 00:26:55;;;;;;;17.92;11.80;;;9.70;86.50;;;;;;5024185;27;20117;-75
2021/10/18 00:29:21;;;;;;;23.00;11.52;;;9.80;86.50;;;;;;5009387;28;20101;-72
2021/10/18 00:31:46;;;;;;;19.00;10.82;;;9.80;86.50;;;;;;5016480;28;20022;-72
2021/10/18 00:34:12;;;;;;;18.40;11.48;;;9.80;86.30;;;;;;5022561;27;20154;-72
2021/10/18 00:36:38;;;;;;;17.13;10.80;;;9.80;86.60;;;;;;5017824;28;20076;-76
2021/10/18 00:39:04;;;;;;;18.55;11.90;;;9.80;86.40;;;;;;5007940;28;20013;-72
2021/10/18 00:41:29;;;;;;;20.13;11.35;;;9.80;86.60;;;;;;5018643;28;20037;-73
2021/10/18 00:43:56;;;;;;;20.33;11.38;;;9.80;86.20;;;;;;5008774;28;20052;-75
2021/10/18 00:46:23;;;;;;;22.67;10.55;;;9.80;86.50;;;;;;5007515;28;20037;-72
2021/10/18 00:48:53;;;;;;;21.60;11.18;;;9.80;86.30;;;;;;5014794;28;20044;-72
2021/10/18 00:51:22;;;;;;;19.35;10.23;;;9.80;86.40;;;;;;5025068;27;20391;-74
2021/10/18 00:53:51;;;;;;;15.90;10.40;;;9.90;86.20;;;;;;5017441;28;20188;-73
2021/10/18 00:56:19;;;;;;;16.30;11.02;;;9.80;86.30;;;;;;5018231;28;20068;-75
2021/10/18 00:58:44;;;;;;;24.85;11.18;;;9.80;86.60;;;;;;5011517;28;20026;-72
2021/10/18 01:01:11;;;;;;;22.40;11.45;;;9.80;86.40;;;;;;5013985;28;20074;-73
2021/10/18 01:03:37;;;;;;;21.88;11.38;;;9.80;86.40;;;;;;5008925;28;20030;-72
2021/10/18 01:06:03;;;;;;;18.58;11.20;;;9.80;86.50;;;;;;5019444;28;20041;-72
2021/10/18 01:08:29;;;;;;;18.40;11.20;;;9.80;86.60;;;;;;5017767;28;20520;-75
2021/10/18 01:10:54;;;;;;;23.23;10.98;;;9.80;86.40;;;;;;5011926;28;20126;-73
2021/10/18 01:13:20;;;;;;;19.83;11.32;;;9.80;86.50;;;;;;5018088;28;20030;-75
2021/10/18 01:15:46;;;;;;;17.65;10.48;;;9.80;86.60;;;;;;5013298;28;20121;-72
2021/10/18 01:18:11;;;;;;;14.85;10.48;;;9.80;86.70;;;;;;5011687;28;20178;-73
2021/10/18 01:20:39;;;;;;;20.30;11.63;;;9.80;86.50;;;;;;5007912;28;20037;-73
2021/10/18 01:23:07;;;;;;;18.85;11.18;;;9.80;86.70;;;;;;5020221;28;20079;-74
2021/10/18 01:25:33;;;;;;;20.27;11.35;;;9.80;86.80;;;;;;5014768;28;20041;-72
2021/10/18 01:27:58;;;;;;;17.05;10.40;;;9.70;86.80;;;;;;5013170;28;20045;-72
2021/10/18 01:30:25;;;;;;;18.55;10.88;;;9.70;86.60;;;;;;5011143;27;20038;-72
2021/10/18 01:32:51;;;;;;;20.08;11.15;;;9.70;86.90;;;;;;5007465;28;20048;-73
2021/10/18 01:35:17;;;;;;;25.13;11.85;;;9.70;86.80;;;;;;5006304;28;20648;-73
2021/10/18 01:37:43;;;;;;;18.70;11.85;;;9.70;87.10;;;;;;5007482;28;20135;-76
2021/10/18 01:40:14;;;;;;;22.60;11.73;;;9.70;87.10;;;;;;5014179;28;20472;-72
2021/10/18 01:42:40;;;;;;;;;;;9.70;86.90;;;;;;5020205;27;20212;-75
2021/10/18 01:45:08;;;;;;;18.15;11.20;;;9.70;86.90;;;;;;5013375;28;19921;-75
2021/10/18 01:47:33;;;;;;;14.82;10.77;;;9.70;86.70;;;;;;5011571;28;20165;-72
2021/10/18 01:49:59;;;;;;;16.85;11.45;;;9.70;87.10;;;;;;5011977;28;20041;-73
2021/10/18 01:52:26;;;;;;;23.98;11.32;;;9.60;87.20;;;;;;5013777;28;20062;-75
2021/10/18 01:54:52;;;;;;;18.10;10.80;;;9.60;86.80;;;;;;5015933;28;20536;-73
2021/10/18 01:57:18;;;;;;;21.73;11.23;;;9.60;87.10;;;;;;5017182;28;20112;-74
2021/10/18 01:59:44;;;;;;;19.90;11.68;;;9.60;87.30;;;;;;5012680;28;20329;-73
2021/10/18 02:02:09;;;;;;;21.13;11.10;;;9.60;87.20;;;;;;5012726;28;20026;-75
2021/10/18 02:04:35;;;;;;;15.45;10.25;;;9.60;87.30;;;;;;5012613;28;20429;-74
2021/10/18 02:07:01;;;;;;;22.65;11.45;;;9.60;87.00;;;;;;5015281;28;20210;-73
2021/10/18 02:09:27;;;;;;;18.33;10.57;;;9.60;86.90;;;;;;5013320;28;20029;-72
2021/10/18 02:11:53;;;;;;;20.88;10.68;;;9.60;87.00;;;;;;5014015;28;20105;-73
2021/10/18 02:14:19;;;;;;;20.02;10.63;;;9.60;86.90;;;;;;5013829;28;20186;-73
2021/10/18 02:16:44;;;;;;;21.42;10.90;;;9.60;87.30;;;;;;5014223;27;20421;-74
2021/10/18 02:19:10;;;;;;;19.77;12.30;;;9.60;87.30;;;;;;5009287;28;20736;-73
2021/10/18 02:21:36;;;;;;;22.25;11.05;;;9.60;87.10;;;;;;5006553;28;20135;-72
2021/10/18 02:24:02;;;;;;;20.63;11.25;;;9.60;87.20;;;;;;5006586;28;20030;-73
2021/10/18 02:26:28;;;;;;;16.67;11.20;;;9.60;87.50;;;;;;5016551;28;20128;-72
2021/10/18 02:28:53;;;;;;;20.08;11.77;;;9.50;87.50;;;;;;5011747;28;20022;-75
2021/10/18 02:31:19;;;;;;;20.00;11.48;;;9.50;87.60;;;;;;5003578;28;20252;-76
2021/10/18 02:33:45;;;;;;;19.17;10.73;;;9.50;87.70;;;;;;5026032;27;20024;-72
2021/10/18 02:36:10;;;;;;;17.02;10.85;;;9.50;87.50;;;;;;5002708;28;20041;-74
2021/10/18 02:38:38;;;;;;;13.50;9.98;;;9.50;87.20;;;;;;5016001;28;20110;-76
2021/10/18 02:41:04;;;;;;;18.20;10.85;;;9.50;87.50;;;;;;5009646;28;20087;-75
2021/10/18 02:43:29;;;;;;;18.73;10.63;;;9.50;87.20;;;;;;5017350;28;20208;-73
2021/10/18 02:45:55;;;;;;;16.17;10.15;;;9.50;87.60;;;;;;5005236;28;20497;-72
2021/10/18 02:48:21;;;;;;;18.40;10.48;;;9.40;87.70;;;;;;5006954;28;20532;-75
2021/10/18 02:50:46;;;;;;;14.93;9.77;;;9.50;87.70;;;;;;5019039;27;20029;-76
2021/10/18 02:53:12;;;;;;;20.00;10.63;;;9.50;87.80;;;;;;5018191;28;20247;-72
2021/10/18 02:55:37;;;;;;;15.85;10.05;;;9.50;87.50;;;;;;5015107;28;20053;-73
2021/10/18 02:58:03;;;;;;;19.17;10.48;;;9.50;87.70;;;;;;5009685;28;20033;-73
2021/10/18 03:00:29;;;;;;;17.30;10.57;;;9.50;87.30;;;;;;5008939;28;20113;-73
2021/10/18 03:02:54;;;;;;;15.77;9.77;;;9.50;87.40;;;;;;5017384;28;20072;-73
2021/10/18 03:05:20;;;;;;;17.48;10.40;;;9.50;87.50;;;;;;5011780;28;20075;-75
2021/10/18 03:07:51;;;;;;;15.45;10.10;;;9.50;87.60;;;;;;5002512;28;20060;-73
2021/10/18 03:10:17;;;;;;;;;;;9.50;87.70;;;;;;5001654;28;20438;-73
2021/10/18 03:12:43;;;;;;;17.75;9.93;;;9.50;87.60;;;;;;5001655;28;19913;-76
2021/10/18 03:15:08;;;;;;;16.55;9.88;;;9.50;87.10;;;;;;5008201;28;20043;-73
2021/10/18 03:17:34;;;;;;;17.33;9.77;;;9.50;87.40;;;;;;5013601;28;20025;-76
2021/10/18 03:20:00;;;;;;;25.50;9.70;;;9.50;87.30;;;;;;5013464;28;20479;-73
2021/10/18 03:22:25;;;;;;;17.65;11.02;;;9.50;87.00;;;;;;5011556;28;20108;-75
2021/10/18 03:24:51;;;;;;;15.88;9.93;;;9.50;87.10;;;;;;5012598;28;20030;-72
2021/10/18 03:27:16;;;;;;;18.83;10.00;;;9.50;86.80;;;;;;5014891;28;20286;-73
2021/10/18 03:29:42;;;;;;;16.60;9.27;;;9.50;86.80;;;;;;5011390;28;20025;-72
2021/10/18 03:32:08;;;;;;;18.05;8.80;;;9.50;86.70;;;;;;5016555;28;20030;-74
2021/10/18 03:34:34;;;;;;;15.48;8.98;;;9.50;86.60;;;;;;5014365;28;20349;-73
2021/10/18 03:36:59;;;;;;;16.27;9.50;;;9.50;86.70;;;;;;5007226;28;20353;-75
2021/10/18 03:39:25;;;;;;;14.75;8.77;;;9.60;86.50;;;;;;5012152;28;20667;-73
2021/10/18 03:41:50;;;;;;;15.63;9.60;;;9.60;86.50;;;;;;5018227;28;20097;-74
2021/10/18 03:44:16;;;;;;;14.98;9.55;;;9.60;86.00;;;;;;5015092;28;20026;-76
2021/10/18 03:46:42;;;;;;;17.58;9.30;;;9.60;86.30;;;;;;5010167;28;20581;-74
2021/10/18 03:49:07;;;;;;;14.95;9.05;;;9.60;86.50;;;;;;5016528;28;20243;-77
2021/10/18 03:51:33;;;;;;;15.55;9.45;;;9.60;86.20;;;;;;5006623;28;20479;-76
2021/10/18 03:53:58;;;;;;;14.07;9.88;;;9.60;86.40;;;;;;5013890;28;20037;-74
2021/10/18 03:56:24;;;;;;;17.65;9.90;;;9.60;86.70;;;;;;5010953;28;20041;-73
2021/10/18 03:58:50;;;;;;;16.30;9.88;;;9.60;86.50;;;;;;5008523;28;20054;-75
2021/10/18 04:01:15;;;;;;;15.57;9.30;;;9.50;86.60;;;;;;5008716;28;20029;-73
2021/10/18 04:03:41;;;;;;;19.02;9.32;;;9.60;86.10;;;;;;5007576;28;20098;-73
2021/10/18 04:06:06;;;;;;;15.63;9.68;;;9.60;86.30;;;;;;5004254;28;20038;-73
2021/10/18 04:08:33;;;;;;;15.50;9.50;;;9.60;85.90;;;;;;5014112;28;20406;-72
2021/10/18 04:11:00;;;;;;;16.48;9.60;;;9.60;86.00;;;;;;5003824;28;20629;-73
2021/10/18 04:13:26;;;;;;;13.68;8.93;;;9.60;86.10;;;;;;5004292;28;20053;-74
2021/10/18 04:15:52;;;;;;;19.58;10.38;;;9.60;85.80;;;;;;5018561;28;20472;-75
2021/10/18 04:18:18;;;;;;;17.83;8.95;;;9.60;85.70;;;;;;5016053;28;20435;-74
2021/10/18 04:20:45;;;;;;;17.23;8.88;;;9.60;85.80;;;;;;5010208;28;20053;-63
2021/10/18 04:23:11;;;;;;;15.15;9.40;;;9.60;85.90;;;;;;5012261;28;20132;-63
2021/10/18 04:25:36;;;;;;;13.05;8.68;;;9.60;85.80;;;;;;5007547;28;20209;-63
2021/10/18 04:28:02;;;;;;;14.82;10.35;;;9.60;85.80;;;;;;5018994;28;20073;-62
2021/10/18 04:30:28;;;;;;;17.88;9.88;;;9.60;85.90;;;;;;5008418;28;20042;-62
2021/10/18 04:32:55;;;;;;;14.18;8.90;;;9.60;86.20;;;;;;5014553;28;20053;-62
2021/10/18 04:35:21;;;;;;;14.85;8.98;;;9.60;85.90;;;;;;5017290;28;20033;-62
2021/10/18 04:37:47;;;;;;;12.93;9.45;;;9.50;86.30;;;;;;5013984;28;20026;-62
2021/10/18 04:40:13;;;;;;;13.93;8.95;;;9.50;86.20;;;;;;5005571;28;20064;-62
2021/10/18 04:42:38;;;;;;;17.50;8.63;;;9.50;86.40;;;;;;5009924;28;20106;-62
2021/10/18 04:45:05;;;;;;;14.43;8.93;;;9.50;86.30;;;;;;5012848;28;20071;-62
2021/10/18 04:47:31;;;;;;;15.07;8.68;;;9.50;86.40;;;;;;5005893;28;20037;-62
2021/10/18 04:49:57;;;;;;;15.38;9.48;;;9.40;86.90;;;;;;5023011;27;20372;-62
2021/10/18 04:52:22;;;;;;;14.70;9.15;;;9.40;87.00;;;;;;5013448;28;20471;-62
2021/10/18 04:54:48;;;;;;;18.05;8.98;;;9.40;87.30;;;;;;5005557;28;20026;-62
2021/10/18 04:57:14;;;;;;;15.40;9.15;;;9.30;87.10;;;;;;5014151;28;20025;-62
2021/10/18 04:59:39;;;;;;;16.50;9.43;;;9.30;87.50;;;;;;5014457;28;20026;-62
2021/10/18 05:02:05;;;;;;;18.33;9.55;;;9.20;87.70;;;;;;5006792;28;20029;-62
2021/10/18 05:04:31;;;;;;;17.50;9.25;;;9.20;87.50;;;;;;5016604;28;20395;-62
2021/10/18 05:06:57;;;;;;;14.95;9.18;;;9.20;87.30;;;;;;5018498;27;20110;-62
2021/10/18 05:09:22;;;;;;;15.57;9.38;;;9.20;87.50;;;;;;5017076;28;20037;-61
2021/10/18 05:11:48;;;;;;;17.10;9.23;;;9.30;87.40;;;;;;5005308;28;20042;-62
2021/10/18 05:14:14;;;;;;;15.93;9.32;;;9.30;87.20;;;;;;5011636;28;20025;-62
2021/10/18 05:16:39;;;;;;;14.02;8.80;;;9.20;86.90;;;;;;5013171;28;20025;-61
2021/10/18 05:19:05;;;;;;;13.98;9.05;;;9.20;87.20;;;;;;5016141;28;20089;-61
2021/10/18 05:21:31;;;;;;;11.45;8.80;;;9.10;87.50;;;;;;5004547;28;20090;-62
2021/10/18 05:23:57;;;;;;;15.90;9.35;;;9.10;87.50;;;;;;5010627;27;20478;-62
2021/10/18 05:26:23;;;;;;;13.50;9.30;;;9.10;87.30;;;;;;5005549;28;20029;-61
2021/10/18 05:28:48;;;;;;;16.02;10.20;;;9.10;87.40;;;;;;5017510;28;20053;-61
2021/10/18 05:31:14;;;;;;;16.48;9.32;;;9.10;87.30;;;;;;5007987;28;20070;-62
2021/10/18 05:33:40;;;;;;;15.52;9.40;;;9.00;87.50;;;;;;5015961;28;20139;-62
2021/10/18 05:36:05;;;;;;;18.58;9.18;;;9.00;87.40;;;;;;5015590;28;20539;-62
2021/10/18 05:38:31;;;;;;;14.60;9.02;;;9.00;87.50;;;;;;5013323;28;20090;-61
2021/10/18 05:40:57;;;;;;;13.75;8.82;;;8.90;87.40;;;;;;5006766;27;20034;-63
2021/10/18 05:43:22;;;;;;;16.83;9.43;;;8.90;87.20;;;;;;5019168;28;20062;-63
2021/10/18 05:45:48;;;;;;;16.52;9.77;;;8.90;86.90;;;;;;5014123;28;20118;-63
2021/10/18 05:48:15;;;;;;;14.07;8.68;;;8.80;87.10;;;;;;5013086;28;20532;-63
2021/10/18 05:50:44;;;;;;;16.15;10.05;;;8.70;87.80;;;;;;5008320;28;20046;-63
2021/10/18 05:53:11;;;;;;;15.38;9.40;;;8.60;88.00;;;;;;5013604;28;20112;-63
2021/10/18 05:55:36;;;;;;;16.58;9.73;;;8.50;88.20;;;;;;5006658;28;20064;-63
2021/10/18 05:58:07;;;;;;;15.38;8.65;;;8.50;88.30;;;;;;5010702;28;20100;-63
2021/10/18 06:00:38;;;;;;;15.82;9.55;;;8.50;88.20;;;;;;5005330;28;20053;-63
2021/10/18 06:03:04;;;;;;;15.90;8.93;;;8.40;88.50;;;;;;5003727;28;20126;-63
2021/10/18 06:05:30;;;;;;;17.30;9.95;;;8.40;88.50;;;;;;5013614;28;20067;-63
2021/10/18 06:08:06;;;;;;;16.77;9.60;;;8.50;88.30;;;;;;5007062;28;20026;-63
2021/10/18 06:10:32;;;;;;;17.63;9.77;;;8.40;88.70;;;;;;5010436;28;20026;-63
2021/10/18 06:12:58;;;;;;;15.55;9.18;;;8.30;88.90;;;;;;5008848;28;20153;-62
2021/10/18 06:15:24;;;;;;;13.27;9.38;;;8.30;89.00;;;;;;5010836;28;20087;-63
2021/10/18 06:17:49;;;;;;;16.88;9.52;;;8.20;89.30;;;;;;5015994;28;20036;-63
2021/10/18 06:20:16;;;;;;;17.77;9.52;;;8.20;89.50;;;;;;5010419;28;20037;-63
2021/10/18 06:22:41;;;;;;;15.77;9.63;;;8.20;89.30;;;;;;5014983;28;20178;-63
2021/10/18 06:25:08;;;;;;;19.15;9.70;;;8.10;89.50;;;;;;5012223;28;20156;-63
2021/10/18 06:27:34;;;;;;;15.38;9.82;;;8.20;89.60;;;;;;5011809;28;20436;-63
2021/10/18 06:30:00;;;;;;;18.13;9.80;;;8.10;89.60;;;;;;5015134;28;20038;-64
2021/10/18 06:32:25;;;;;;;14.48;9.98;;;8.30;89.10;;;;;;5012445;28;20378;-63
2021/10/18 06:34:51;;;;;;;17.58;9.65;;;8.40;88.90;;;;;;5015161;28;20029;-63
2021/10/18 06:37:17;;;;;;;14.25;9.63;;;8.50;88.80;;;;;;5017809;28;20486;-65
2021/10/18 06:39:43;;;;;;;15.68;9.75;;;8.50;88.50;;;;;;5014308;28;20021;-63
2021/10/18 06:42:08;;;;;;;12.48;8.93;;;8.60;88.30;;;;;;5009607;28;20029;-64
2021/10/18 06:44:34;;;;;;;15.50;8.77;;;8.80;88.40;;;;;;5015603;28;20030;-63
2021/10/18 06:47:00;;;;;;;15.88;9.48;;;8.90;88.00;;;;;;5009074;28;20030;-63
2021/10/18 06:49:26;;;;;;;14.30;8.40;;;9.00;87.80;;;;;;5014115;28;20473;-64
2021/10/18 06:51:54;;;;;;;12.85;8.20;;;9.00;87.40;;;;;;5008537;28;20652;-63
2021/10/18 06:54:21;;;;;;;13.25;8.02;;;9.10;87.20;;;;;;5011916;28;20064;-63
2021/10/18 06:56:47;;;;;;;14.77;8.10;;;9.20;86.90;;;;;;5010257;28;20030;-64
2021/10/18 06:59:14;;;;;;;17.92;8.15;;;9.30;85.90;;;;;;5011007;28;20052;-64
2021/10/18 07:01:40;;;;;;;13.60;7.80;;;9.30;85.90;;;;;;5007866;28;20033;-64
2021/10/18 07:04:06;;;;;;;15.60;8.48;;;9.40;85.90;;;;;;5014971;28;20048;-64
2021/10/18 07:06:32;;;;;;;10.90;7.78;;;9.50;85.90;;;;;;5012425;28;20628;-64
2021/10/18 07:08:58;;;;;;;11.23;7.45;;;9.50;85.60;;;;;;5016488;28;20075;-64
2021/10/18 07:11:25;;;;;;;11.45;7.68;;;9.60;85.70;;;;;;5014824;28;20057;-64
2021/10/18 07:13:50;;;;;;;12.13;7.55;;;9.60;85.40;;;;;;5015790;28;20094;-64
2021/10/18 07:16:16;;;;;;;15.00;7.13;;;9.60;85.20;;;;;;5010151;28;20116;-64
2021/10/18 07:18:43;;;;;;;11.82;7.18;;;9.70;84.90;;;;;;5013931;28;20128;-63
2021/10/18 07:21:09;;;;;;;11.23;7.03;;;9.80;85.00;;;;;;5011617;28;20062;-64
2021/10/18 07:23:34;;;;;;;13.98;7.53;;;9.80;84.70;;;;;;5024189;28;20206;-64
2021/10/18 07:26:03;;;;;;;13.57;7.82;;;9.80;85.40;;;;;;5012733;28;20326;-64
2021/10/18 07:28:28;;;;;;;14.68;7.70;;;9.90;84.90;;;;;;5013580;28;20098;-64
2021/10/18 07:30:55;;;;;;;12.25;7.63;;;9.90;84.80;;;;;;5014549;28;20070;-63
2021/10/18 07:33:21;;;;;;;12.77;8.32;;;10.00;84.60;;;;;;5016415;28;20034;-63
2021/10/18 07:35:47;;;;;;;11.32;7.40;;;10.00;84.50;;;;;;5015707;28;20108;-63
2021/10/18 07:38:13;;;;;;;11.85;6.93;;;10.10;84.40;;;;;;5014862;28;20216;-63
2021/10/18 07:40:39;;;;;;;12.82;7.28;;;10.10;84.40;;;;;;5022087;28;20038;-64
2021/10/18 07:43:06;;;;;;;11.32;7.18;;;10.10;84.20;;;;;;5015999;28;20259;-63
2021/10/18 07:45:32;;;;;;;12.27;6.70;;;10.20;84.10;;;;;;5016810;28;20141;-63
2021/10/18 07:47:58;;;;;;;12.48;7.45;;;10.30;83.90;;;;;;5012740;28;20069;-64
2021/10/18 07:50:23;;;;;;;16.02;7.78;;;10.40;84.00;;;;;;5009152;28;20164;-64
2021/10/18 07:52:49;;;;;;;11.27;7.13;;;10.50;83.70;;;;;;5012102;28;20028;-64
2021/10/18 07:55:17;;;;;;;12.85;7.05;;;10.50;83.50;;;;;;5017089;28;20037;-63
2021/10/18 07:57:45;;;;;;;12.13;7.40;;;10.50;83.20;;;;;;5023179;27;20130;-62
2021/10/18 08:00:13;;;;;;;10.65;6.25;;;10.60;83.40;;;;;;5017968;28;20120;-63
2021/10/18 08:02:39;;;;;;;11.70;7.32;;;10.60;83.10;;;;;;5014075;28;20040;-63
2021/10/18 08:05:05;;;;;;;14.18;6.80;;;10.60;82.80;;;;;;5010649;28;20044;-63
2021/10/18 08:07:36;;;;;;;12.68;6.95;;;10.60;82.40;;;;;;5013556;28;20419;-65
2021/10/18 08:10:05;;;;;;;10.30;6.50;;;10.70;82.20;;;;;;5015631;28;20164;-66
2021/10/18 08:12:31;;;;;;;11.25;6.65;;;10.90;82.50;;;;;;5016036;28;20026;-66
2021/10/18 08:14:58;;;;;;;15.63;6.53;;;10.90;81.40;;;;;;5013977;28;20141;-66
2021/10/18 08:17:24;;;;;;;9.27;6.50;;;11.00;81.90;;;;;;5016809;28;20037;-66
2021/10/18 08:19:50;;;;;;;11.05;5.65;;;11.10;82.00;;;;;;5010857;28;20066;-66
2021/10/18 08:22:15;;;;;;;12.07;6.70;;;11.20;81.60;;;;;;5012538;28;20653;-66
2021/10/18 08:24:41;;;;;;;11.48;6.22;;;11.30;81.90;;;;;;5014276;28;20102;-67
2021/10/18 08:27:07;;;;;;;10.05;6.45;;;11.30;81.20;;;;;;5017046;28;20034;-66
2021/10/18 08:29:33;;;;;;;12.60;5.65;;;11.30;81.50;;;;;;5011946;28;20039;-65
2021/10/18 08:31:58;;;;;;;9.43;6.30;;;11.40;81.70;;;;;;5023538;27;20752;-66
2021/10/18 08:34:24;;;;;;;11.40;5.70;;;11.40;80.70;;;;;;5015170;28;20240;-66
2021/10/18 08:36:49;;;;;;;13.05;5.68;;;11.40;80.30;;;;;;5017209;28;20171;-68
2021/10/18 08:41:44;;;;;;;11.30;6.13;;;11.60;81.30;;;;;;5017800;28;20112;-64
2021/10/18 08:44:16;;;;;;;10.95;5.50;;;11.60;80.50;;;;;;5018489;28;20318;-65
2021/10/18 08:46:52;;;;;;;11.05;5.95;;;11.60;79.70;;;;;;5021356;27;20086;-64
2021/10/18 08:49:20;;;;;;;11.32;5.72;;;11.70;79.70;;;;;;5013425;28;20439;-64
2021/10/18 08:51:46;;;;;;;8.95;5.82;;;11.80;80.90;;;;;;5012977;28;20026;-64
2021/10/18 08:54:12;;;;;;;11.25;5.43;;;11.80;79.60;;;;;;5016244;28;20036;-65
2021/10/18 08:56:38;;;;;;;14.45;5.72;;;12.00;79.80;;;;;;5014873;28;20029;-65
2021/10/18 08:59:04;;;;;;;11.73;5.43;;;11.90;79.50;;;;;;5018258;28;20471;-65
2021/10/18 09:01:41;;;;;;;9.93;5.75;;;12.20;80.50;;;;;;5013767;28;20041;-64
2021/10/18 09:04:16;;;;;;;11.38;6.00;;;12.10;78.70;;;;;;5022698;27;20098;-64
2021/10/18 09:06:46;;;;;;;11.35;5.82;;;12.10;77.90;;;;;;5012571;28;20025;-64
2021/10/18 09:09:13;;;;;;;8.50;4.93;;;12.30;79.00;;;;;;5008368;28;20055;-64
2021/10/18 09:11:39;;;;;;;11.68;5.88;;;12.30;77.90;;;;;;5006897;28;20030;-64
2021/10/18 09:14:06;;;;;;;10.43;5.63;;;12.50;78.10;;;;;;5012763;28;20088;-64
2021/10/18 09:16:45;;;;;;;11.05;5.68;;;12.60;78.20;;;;;;5012512;28;20056;-64
2021/10/18 09:19:18;;;;;;;8.80;5.13;;;12.50;77.00;;;;;;5017937;28;20480;-64
2021/10/18 09:21:56;;;;;;;104.88;10.27;;;12.50;78.00;;;;;;5006679;28;20061;-64
2021/10/18 09:24:32;;;;;;;11.77;5.90;;;12.60;77.90;;;;;;5007212;28;20117;-64
2021/10/18 09:27:03;;;;;;;8.93;5.35;;;12.50;77.20;;;;;;5015761;28;20037;-64
2021/10/18 09:29:47;;;;;;;8.52;5.30;;;12.60;77.60;;;;;;5015506;28;20045;-64
2021/10/18 09:32:43;;;;;;;12.93;5.75;;;12.60;77.00;;;;;;5011862;28;20025;-64
2021/10/18 09:35:19;;;;;;;12.88;5.43;;;12.60;76.80;;;;;;5022721;28;20052;-63
2021/10/18 09:37:45;;;;;;;9.98;5.38;;;12.70;77.10;;;;;;5012230;28;20482;-63
2021/10/18 09:40:41;;;;;;;13.77;5.63;;;12.60;77.40;;;;;;5014857;28;20452;-63
2021/10/18 09:43:13;;;;;;;8.73;5.22;;;12.80;77.10;;;;;;5019021;28;20033;-63
2021/10/18 10:53:23;;;;;;;10.32;5.03;;;13.80;75.90;;;;;;5013255;28;20034;-64
2021/10/18 10:55:51;;;;;;;8.20;4.47;;;13.80;75.10;;;;;;5014747;28;20112;-64
2021/10/18 10:58:39;;;;;;;10.75;4.95;;;13.70;75.30;;;;;;5010987;28;20085;-64
2021/10/18 11:01:05;;;;;;;7.03;4.57;;;14.00;75.20;;;;;;5007894;28;20139;-64
2021/10/18 11:03:38;;;;;;;9.27;4.50;;;14.20;74.70;;;;;;5022179;28;20511;-64
2021/10/18 11:06:06;;;;;;;7.97;4.68;;;14.20;74.10;;;;;;5013501;28;20437;-64
2021/10/18 11:08:35;;;;;;;8.63;4.57;;;14.30;73.30;;;;;;5012924;28;20048;-64
2021/10/18 11:11:15;;;;;;;8.20;4.13;;;14.10;72.30;;;;;;5018038;28;20182;-64
2021/10/18 11:13:42;;;;;;;8.93;4.60;;;14.30;74.50;;;;;;5010098;28;20490;-64
2021/10/18 11:16:08;;;;;;;8.43;4.82;;;14.10;73.80;;;;;;5008974;28;20355;-64
2021/10/18 11:18:34;;;;;;;8.02;4.93;;;14.20;73.60;;;;;;5013918;28;20113;-64
2021/10/18 11:21:14;;;;;;;10.60;5.72;;;14.20;73.80;;;;;;5016049;27;20042;-65
2021/10/18 11:24:02;;;;;;;9.98;4.93;;;14.20;73.40;;;;;;5014984;28;20033;-65
2021/10/18 11:26:37;;;;;;;9.70;4.93;;;14.10;72.30;;;;;;5013137;28;20042;-64
2021/10/18 11:29:07;;;;;;;8.63;4.85;;;14.10;74.40;;;;;;5018999;28;20125;-64
2021/10/18 11:31:37;;;;;;;10.05;4.88;;;14.30;74.30;;;;;;5013032;28;20037;-64
2021/10/18 11:34:19;;;;;;;8.18;4.35;;;14.10;74.20;;;;;;5018596;28;20174;-64
2021/10/18 11:36:49;;;;;;;7.85;4.43;;;14.10;74.20;;;;;;5015058;27;21150;-66
2021/10/18 11:39:25;;;;;;;8.77;4.57;;;14.10;75.90;;;;;;5004250;28;20039;-65
2021/10/18 11:42:13;;;;;;;8.93;5.15;;;14.00;74.10;;;;;;5018302;27;20543;-65
2021/10/18 11:44:55;;;;;;;11.43;4.47;;;13.90;74.60;;;;;;5004026;28;20084;-64
2021/10/18 11:47:33;;;;;;;9.55;4.60;;;14.00;74.90;;;;;;5015372;28;20066;-64
2021/10/18 11:50:11;;;;;;;7.72;4.18;;;14.00;75.30;;;;;;5009073;28;20063;-64
2021/10/18 11:52:44;;;;;;;9.20;4.80;;;14.00;74.80;;;;;;5015501;28;20128;-64
2021/10/18 11:55:32;;;;;;;8.98;4.85;;;14.00;74.70;;;;;;5018007;28;20067;-63
2021/10/18 11:58:04;;;;;;;12.15;4.75;;;14.00;75.40;;;;;;5013701;28;20037;-64
2021/10/18 12:00:41;;;;;;;8.38;5.00;;;14.10;76.00;;;;;;5015684;28;20037;-64
2021/10/18 12:03:12;;;;;;;8.70;4.53;;;14.10;75.00;;;;;;5018915;28;20186;-64
2021/10/18 12:05:49;;;;;;;8.90;5.00;;;14.20;75.70;;;;;;5013096;28;20259;-64
2021/10/18 12:08:17;;;;;;;10.43;5.05;;;14.30;74.60;;;;;;5011786;28;20154;-64
2021/10/18 12:10:47;;;;;;;8.10;4.60;;;14.30;74.20;;;;;;5022695;27;20040;-64
2021/10/18 12:13:21;;;;;;;8.38;5.32;;;14.50;74.20;;;;;;5009230;28;20504;-64
2021/10/18 12:16:03;;;;;;;10.10;5.40;;;14.60;73.90;;;;;;5010192;28;20178;-65
2021/10/18 12:18:33;;;;;;;8.68;5.25;;;14.70;73.10;;;;;;5013719;28;20034;-65
2021/10/18 12:21:02;;;;;;;9.55;4.95;;;14.70;72.60;;;;;;5020391;28;20040;-65
2021/10/18 12:23:35;;;;;;;11.35;4.25;;;14.90;72.60;;;;;;5013134;28;20629;-64
2021/10/18 12:26:10;;;;;;;8.80;4.57;;;15.00;72.70;;;;;;5019748;28;20068;-65
2021/10/18 12:28:44;;;;;;;8.07;4.00;;;15.10;73.30;;;;;;5020617;28;20178;-65
2021/10/18 12:31:33;;;;;;;9.93;4.68;;;15.20;72.40;;;;;;5012352;28;20038;-64
2021/10/18 12:34:14;;;;;;;8.20;4.57;;;15.10;72.00;;;;;;5013230;28;20443;-64
2021/10/18 12:37:01;;;;;;;9.13;4.40;;;14.90;70.50;;;;;;5018231;28;20076;-65
2021/10/18 12:39:54;;;;;;;8.55;4.75;;;14.80;69.90;;;;;;5017951;28;20052;-64
2021/10/18 12:42:29;;;;;;;8.75;4.38;;;14.80;70.30;;;;;;5014034;28;20419;-64
2021/10/18 12:45:08;;;;;;;7.35;4.47;;;14.70;69.50;;;;;;5017923;28;20384;-64
2021/10/18 12:47:37;;;;;;;10.32;4.43;;;14.60;69.80;;;;;;5027559;27;20095;-64
2021/10/18 12:50:19;;;;;;;9.60;4.60;;;14.50;71.00;;;;;;5018593;28;20041;-64
2021/10/18 12:53:02;;;;;;;7.30;4.45;;;14.60;71.10;;;;;;5014190;28;20477;-65
2021/10/18 12:55:35;;;;;;;8.32;4.03;;;14.50;70.30;;;;;;5018101;28;20499;-64
2021/10/18 12:58:05;;;;;;;9.75;4.55;;;14.60;71.20;;;;;;5015982;28;20030;-65
2021/10/18 13:00:38;;;;;;;10.40;4.17;;;14.60;71.30;;;;;;5016988;28;20014;-64
2021/10/18 13:03:07;;;;;;;6.75;3.95;;;14.60;71.80;;;;;;5016501;28;20204;-64
2021/10/18 13:05:38;;;;;;;9.65;4.68;;;14.60;72.80;;;;;;5019653;28;20033;-64
2021/10/18 13:08:04;;;;;;;;;;;14.50;72.10;;;;;;5013897;28;20056;-64
2021/10/18 13:10:32;;;;;;;7.03;3.53;;;14.60;72.70;;;;;;5016251;28;20038;-64
2021/10/18 13:13:02;;;;;;;7.55;4.05;;;14.70;73.10;;;;;;5015387;28;20033;-64
2021/10/18 13:15:27;;;;;;;8.73;4.18;;;14.80;72.10;;;;;;5014701;28;20495;-64
2021/10/18 13:17:53;;;;;;;6.55;4.00;;;15.00;72.60;;;;;;5017416;28;20151;-64
2021/10/18 13:20:22;;;;;;;6.22;3.00;;;15.20;72.90;;;;;;5022316;27;20566;-65
2021/10/18 13:22:49;;;;;;;8.23;3.22;;;15.10;72.20;;;;;;5014944;28;20033;-64
2021/10/18 13:25:15;;;;;;;8.52;3.17;;;15.30;71.80;;;;;;5012835;28;20143;-64
2021/10/18 13:27:41;;;;;;;6.93;2.38;;;15.60;70.30;;;;;;5016224;28;20086;-64
2021/10/18 13:30:09;;;;;;;11.15;2.95;;;16.10;68.90;;;;;;5014186;28;20041;-64
2021/10/18 13:32:35;;;;;;;4.88;1.98;;;16.40;66.30;;;;;;5016597;28;20314;-65
2021/10/18 13:35:03;;;;;;;6.25;2.42;;;16.50;66.40;;;;;;5014368;28;20100;-64
2021/10/18 13:37:29;;;;;;;4.60;2.15;;;16.50;66.90;;;;;;5026588;27;20094;-64
2021/10/18 13:39:54;;;;;;;3.38;1.63;;;16.10;65.30;;;;;;5017847;28;20410;-64
2021/10/18 13:42:21;;;;;;;6.38;1.90;;;16.00;66.20;;;;;;5016863;28;21036;-65
2021/10/18 13:44:46;;;;;;;6.97;1.85;;;16.20;66.70;;;;;;5018460;28;20460;-65
2021/10/18 13:47:12;;;;;;;5.07;1.75;;;16.10;66.30;;;;;;5016058;28;20048;-65
2021/10/18 13:49:38;;;;;;;4.88;2.08;;;15.80;66.70;;;;;;5014428;28;20037;-64
2021/10/18 13:52:04;;;;;;;3.80;1.60;;;15.60;65.80;;;;;;5012777;28;20394;-64
2021/10/18 13:54:30;;;;;;;4.53;2.30;;;15.50;67.30;;;;;;5023883;27;20030;-64
2021/10/18 13:56:56;;;;;;;5.90;2.25;;;15.60;67.80;;;;;;5016119;28;20082;-64